South Brook, Canada
Current Conditions -  °F | °C
As of 5:00 PM on Monday 22 Dec 2014 (Local Time) from CYDF Reporting Station
Broken Clouds Broken Clouds  
Wind Chill: 23°   Ceiling: 2200
Heat Index: 23°   Visibility: 15mi
Dew Point: 23°   Wind: 0mph
Humidity: 100%   Direction: NA
Pressure: 30.44"   Gusts: NA
Location:  49.02°N, 57.62°W
Report Text: CYDF 222000Z 00000KT 15SM BKN022 M05/M05 A3044 RMK SC5 SLP310
Loading
Personal Weather Stations






























Interactive Weather Map New forecast layout! Learn more

10-Day Weather Forecast

Advertisements
Track Severe Weather on mobile